createdAt,value
2022-12-09T00:02:35.742Z,90.26
2022-12-09T00:05:40.691Z,90.53
2022-12-09T00:08:43.185Z,90.24
2022-12-09T00:11:45.220Z,90.31
2022-12-09T00:14:47.220Z,89.84
2022-12-09T00:17:49.521Z,89.64
2022-12-09T00:20:52.590Z,90.69
2022-12-09T00:23:56.612Z,90.82
2022-12-09T00:26:59.163Z,90.57
2022-12-09T00:30:01.298Z,90.80
2022-12-09T00:33:03.723Z,90.88
2022-12-09T00:36:06.300Z,90.96
2022-12-09T00:39:08.301Z,90.71
2022-12-09T00:42:10.361Z,90.83
2022-12-09T00:45:13.246Z,90.19
2022-12-09T00:48:15.773Z,89.87
2022-12-09T00:51:21.851Z,89.55
2022-12-09T00:54:23.892Z,89.67
2022-12-09T00:57:29.146Z,90.18
2022-12-09T01:00:31.029Z,90.55
2022-12-09T01:03:33.392Z,91.15
2022-12-09T01:06:35.795Z,92.37
2022-12-09T01:09:38.110Z,92.72
2022-12-09T01:12:40.395Z,92.71
2022-12-09T01:15:43.385Z,92.29
2022-12-09T01:18:46.044Z,92.44
2022-12-09T01:21:47.845Z,92.96
2022-12-09T01:24:50.328Z,93.17
2022-12-09T01:27:52.242Z,93.45
2022-12-09T01:30:54.444Z,94.49
2022-12-09T01:33:58.760Z,94.27
2022-12-09T01:37:03.057Z,94.17
2022-12-09T01:40:08.199Z,93.95
2022-12-09T01:43:19.048Z,93.61
2022-12-09T01:46:21.148Z,94.09
2022-12-09T01:49:26.720Z,93.05
2022-12-09T01:52:29.143Z,92.23
2022-12-09T01:55:31.781Z,92.15
2022-12-09T01:58:33.830Z,91.68
2022-12-09T02:01:36.676Z,92.02
2022-12-09T02:04:46.291Z,91.55
2022-12-09T02:07:51.075Z,91.46
2022-12-09T02:11:17.824Z,91.14
2022-12-09T02:14:31.044Z,90.97
2022-12-09T02:17:40.899Z,90.22
2022-12-09T02:21:02.051Z,90.18
2022-12-09T02:24:09.068Z,90.46
2022-12-09T02:27:11.227Z,90.59
2022-12-09T02:30:23.284Z,90.08
2022-12-09T02:33:39.186Z,90.47
2022-12-09T02:37:16.965Z,90.23
2022-12-09T02:40:30.853Z,90.59
2022-12-09T02:43:36.309Z,90.15
2022-12-09T02:46:38.842Z,89.73
2022-12-09T02:49:46.677Z,90.24
2022-12-09T02:52:50.532Z,91.09
2022-12-09T02:55:55.042Z,90.42
2022-12-09T02:58:57.084Z,90.24
2022-12-09T03:02:21.789Z,90.40
2022-12-09T03:05:34.299Z,90.34
2022-12-09T03:09:05.400Z,91.21
2022-12-09T03:12:09.090Z,91.25
2022-12-09T03:15:12.506Z,91.65
2022-12-09T03:18:17.119Z,92.36
2022-12-09T03:21:22.154Z,93.09
2022-12-09T03:24:37.757Z,93.61
2022-12-09T03:27:43.577Z,92.86
2022-12-09T03:30:46.696Z,93.16
2022-12-09T03:33:51.433Z,92.73
2022-12-09T03:36:54.410Z,92.14
2022-12-09T03:39:57.965Z,92.84
2022-12-09T03:43:12.420Z,92.16
2022-12-09T03:46:14.704Z,91.92
2022-12-09T03:49:16.737Z,91.12
2022-12-09T03:52:57.231Z,90.39
2022-12-09T03:56:15.930Z,90.32
2022-12-09T03:59:18.638Z,90.76
2022-12-09T04:02:20.887Z,90.64
2022-12-09T04:05:23.360Z,91.51
2022-12-09T04:08:25.507Z,91.44
2022-12-09T04:11:27.732Z,90.82
2022-12-09T04:14:29.515Z,89.95
2022-12-09T04:17:31.490Z,89.73
2022-12-09T04:20:33.460Z,90.17
2022-12-09T04:23:40.872Z,90.52
2022-12-09T04:26:45.787Z,90.06
2022-12-09T04:29:48.037Z,89.50
2022-12-09T04:32:50.211Z,88.93
2022-12-09T04:35:52.338Z,88.84
2022-12-09T04:38:54.295Z,88.88
2022-12-09T04:41:56.620Z,88.35
2022-12-09T04:44:58.643Z,88.65
2022-12-09T04:48:01.355Z,89.57
2022-12-09T04:51:03.941Z,89.31
2022-12-09T04:54:05.839Z,89.29
2022-12-09T04:57:09.127Z,89.36
2022-12-09T05:00:14.603Z,90.65
2022-12-09T05:03:17.634Z,90.99
2022-12-09T05:06:20.769Z,92.25
2022-12-09T05:09:23.709Z,92.60
2022-12-09T05:12:25.862Z,93.32
2022-12-09T05:15:27.763Z,92.87
2022-12-09T05:18:30.778Z,92.55
2022-12-09T05:21:35.732Z,92.58
2022-12-09T05:24:38.255Z,91.81
2022-12-09T05:27:40.583Z,90.78
2022-12-09T05:30:43.102Z,90.59
2022-12-09T05:33:46.269Z,90.73
2022-12-09T05:36:48.767Z,90.22
2022-12-09T05:39:50.924Z,90.53
2022-12-09T05:42:52.975Z,89.99
2022-12-09T05:45:55.987Z,89.63
2022-12-09T05:48:58.449Z,89.96
2022-12-09T05:52:00.440Z,90.57
2022-12-09T05:55:07.970Z,90.10
2022-12-09T05:58:10.376Z,90.20
2022-12-09T06:01:13.670Z,90.27
2022-12-09T06:04:16.255Z,90.46
2022-12-09T06:07:19.618Z,91.69
2022-12-09T06:10:22.343Z,92.39
2022-12-09T06:13:24.628Z,93.66
2022-12-09T06:16:27.223Z,93.93
2022-12-09T06:19:29.680Z,95.44
2022-12-09T06:22:32.108Z,95.81
2022-12-09T06:25:34.334Z,95.62
2022-12-09T06:28:36.722Z,95.45
2022-12-09T06:31:42.100Z,95.21
2022-12-09T06:34:44.845Z,94.41
2022-12-09T06:37:47.155Z,95.14
2022-12-09T06:40:49.227Z,94.86
2022-12-09T06:43:51.488Z,94.97
2022-12-09T06:46:53.788Z,95.84
2022-12-09T06:50:02.614Z,97.72
2022-12-09T06:53:10.158Z,97.66
2022-12-09T06:56:13.774Z,97.71
2022-12-09T06:59:16.938Z,98.21
2022-12-09T07:02:21.692Z,98.80
2022-12-09T07:05:24.275Z,98.32
2022-12-09T07:08:26.938Z,98.24
2022-12-09T07:11:29.386Z,98.74
2022-12-09T07:14:32.626Z,98.19
2022-12-09T07:17:35.336Z,97.74
2022-12-09T07:20:37.999Z,98.30
2022-12-09T07:23:40.242Z,96.56
2022-12-09T07:26:43.298Z,97.36
2022-12-09T07:29:45.784Z,96.13
2022-12-09T07:32:48.172Z,96.10
2022-12-09T07:35:50.903Z,96.16
2022-12-09T07:38:57.939Z,95.65
2022-12-09T07:42:00.220Z,95.72
2022-12-09T07:45:06.666Z,94.99
2022-12-09T07:48:09.560Z,94.64
2022-12-09T07:51:12.704Z,94.16
2022-12-09T07:54:19.722Z,94.42
2022-12-09T07:57:24.424Z,94.78
2022-12-09T08:00:27.345Z,95.23
2022-12-09T08:03:29.688Z,96.95
2022-12-09T08:06:33.206Z,96.69
2022-12-09T08:09:35.861Z,95.52
2022-12-09T08:12:42.540Z,94.64
2022-12-09T08:15:45.216Z,94.78
2022-12-09T08:18:48.863Z,95.20
2022-12-09T08:21:54.491Z,95.46
2022-12-09T08:24:58.186Z,95.44
2022-12-09T08:28:01.203Z,94.11
2022-12-09T08:31:08.649Z,92.64
2022-12-09T08:34:11.442Z,91.97
2022-12-09T08:37:14.627Z,92.02
2022-12-09T08:40:17.473Z,91.36
2022-12-09T08:43:19.668Z,91.56
2022-12-09T08:46:21.952Z,90.69
2022-12-09T08:49:25.828Z,91.00
2022-12-09T08:52:28.241Z,90.77
2022-12-09T08:55:31.208Z,90.41
2022-12-09T08:58:34.223Z,89.85
2022-12-09T09:01:36.567Z,90.01
2022-12-09T09:04:39.950Z,91.04
2022-12-09T09:07:42.733Z,92.67
2022-12-09T09:10:46.747Z,92.23
2022-12-09T09:13:53.261Z,92.50
2022-12-09T09:16:56.257Z,91.93
2022-12-09T09:19:58.613Z,91.21
2022-12-09T09:23:05.165Z,91.41
2022-12-09T09:26:13.747Z,90.95
2022-12-09T09:29:18.205Z,90.82
2022-12-09T09:32:20.622Z,89.99
2022-12-09T09:35:26.614Z,89.65
2022-12-09T09:38:30.173Z,89.53
2022-12-09T09:42:06.017Z,89.25
2022-12-09T09:45:12.628Z,88.10
2022-12-09T09:48:19.152Z,89.10
2022-12-09T09:51:21.891Z,88.87
2022-12-09T09:54:24.280Z,89.68
2022-12-09T09:57:35.448Z,88.96
2022-12-09T10:01:07.418Z,88.14
2022-12-09T10:04:15.567Z,89.09
2022-12-09T10:07:45.863Z,88.83
2022-12-09T10:11:33.116Z,88.47
2022-12-09T10:15:09.801Z,88.78
2022-12-09T10:18:23.548Z,89.17
2022-12-09T10:21:30.245Z,89.52
2022-12-09T10:24:39.988Z,89.14
2022-12-09T10:28:08.026Z,90.48
2022-12-09T10:31:11.286Z,90.04
2022-12-09T10:34:14.544Z,90.80
2022-12-09T10:37:28.491Z,90.09
2022-12-09T10:40:37.719Z,91.12
2022-12-09T10:43:44.713Z,91.44
2022-12-09T10:46:47.865Z,90.97
2022-12-09T10:49:52.695Z,91.32
2022-12-09T10:52:56.135Z,90.70
2022-12-09T10:56:00.296Z,89.83
2022-12-09T10:59:18.989Z,90.57
2022-12-09T11:02:22.082Z,91.00
2022-12-09T11:05:30.184Z,91.34
2022-12-09T11:08:42.600Z,90.88
2022-12-09T11:11:50.438Z,91.22
2022-12-09T11:14:55.519Z,91.06
2022-12-09T11:18:00.720Z,91.20
2022-12-09T11:21:06.771Z,91.48
2022-12-09T11:24:22.205Z,92.29
2022-12-09T11:27:33.948Z,92.26
2022-12-09T11:30:57.812Z,91.96
2022-12-09T11:34:24.034Z,92.43
2022-12-09T11:37:27.499Z,92.51
2022-12-09T11:40:29.980Z,92.93
2022-12-09T11:43:53.041Z,93.24
2022-12-09T11:47:13.882Z,93.63
2022-12-09T11:50:26.661Z,94.43
2022-12-09T11:53:34.003Z,93.93
2022-12-09T11:56:36.501Z,93.58
2022-12-09T11:59:48.391Z,95.03
2022-12-09T12:03:02.000Z,95.39
2022-12-09T12:06:23.314Z,94.83
2022-12-09T12:09:41.994Z,94.52
2022-12-09T12:13:24.095Z,93.87
2022-12-09T12:16:53.636Z,94.18
2022-12-09T12:19:59.644Z,94.02
2022-12-09T12:23:20.764Z,92.69
2022-12-09T12:26:26.204Z,92.49
2022-12-09T12:29:49.711Z,90.98
2022-12-09T12:36:42.176Z,91.31
2022-12-09T12:40:11.091Z,92.15
2022-12-09T12:43:44.542Z,92.50
2022-12-09T12:47:31.733Z,91.98
2022-12-09T12:50:52.351Z,93.18
2022-12-09T12:54:20.400Z,92.24
2022-12-09T12:57:59.853Z,92.71
2022-12-09T13:01:08.633Z,93.31
2022-12-09T13:04:18.063Z,93.01
2022-12-09T13:07:38.378Z,92.37
2022-12-09T13:10:51.063Z,93.78
2022-12-09T13:13:59.772Z,95.40
2022-12-09T13:17:03.506Z,96.26
2022-12-09T13:20:06.751Z,97.28
2022-12-09T13:23:29.596Z,98.45
2022-12-09T13:26:34.891Z,99.61
2022-12-09T13:29:58.126Z,100.00
2022-12-09T13:33:25.476Z,100.00
2022-12-09T13:36:38.055Z,100.00
2022-12-09T13:39:40.177Z,100.00
2022-12-09T13:42:58.694Z,100.00
2022-12-09T13:46:01.531Z,100.00
2022-12-09T13:49:12.677Z,100.00
2022-12-09T13:52:51.285Z,100.00
2022-12-09T13:55:56.858Z,100.00
2022-12-09T13:59:13.956Z,100.00
2022-12-09T14:02:57.843Z,100.00
2022-12-09T14:06:04.522Z,100.00
2022-12-09T14:09:44.117Z,100.00
2022-12-09T14:12:55.573Z,100.00
2022-12-09T14:16:19.582Z,100.00
2022-12-09T14:19:24.821Z,100.00
2022-12-09T14:22:32.636Z,100.00
2022-12-09T14:25:35.295Z,100.00
2022-12-09T14:28:42.234Z,100.00
2022-12-09T14:31:49.152Z,100.00
2022-12-09T14:35:07.290Z,100.00
2022-12-09T14:38:22.407Z,100.00
2022-12-09T14:41:43.420Z,100.00
2022-12-09T14:44:57.057Z,99.79
2022-12-09T14:48:00.893Z,99.64
2022-12-09T14:51:28.700Z,99.06
2022-12-09T14:54:34.311Z,99.44
2022-12-09T14:57:45.421Z,100.00
2022-12-09T15:00:47.930Z,100.00
2022-12-09T15:04:00.532Z,100.00
2022-12-09T15:07:13.054Z,100.00
2022-12-09T15:10:32.385Z,100.00
2022-12-09T15:13:36.536Z,99.57
2022-12-09T15:16:47.696Z,100.00
2022-12-09T15:20:01.433Z,100.00
2022-12-09T15:23:19.421Z,100.00
2022-12-09T15:26:32.479Z,100.00
2022-12-09T15:29:34.917Z,100.00
2022-12-09T15:32:40.745Z,100.00
2022-12-09T15:35:45.913Z,100.00
2022-12-09T15:39:01.589Z,100.00
2022-12-09T15:42:07.601Z,100.00
2022-12-09T15:45:12.448Z,100.00
2022-12-09T15:48:19.367Z,100.00
2022-12-09T15:51:23.425Z,100.00
2022-12-09T15:54:29.511Z,100.00
2022-12-09T15:57:31.638Z,100.00
2022-12-09T16:00:41.045Z,100.00
2022-12-09T16:03:49.477Z,100.00
2022-12-09T16:06:52.529Z,99.16
2022-12-09T16:10:16.659Z,100.00
2022-12-09T16:13:22.564Z,99.76
2022-12-09T16:16:30.770Z,99.39
2022-12-09T16:19:33.931Z,98.65
2022-12-09T16:22:36.802Z,98.14
2022-12-09T16:25:45.768Z,97.86
2022-12-09T16:29:00.343Z,98.29
2022-12-09T16:32:26.569Z,97.19
2022-12-09T16:35:35.990Z,97.26
2022-12-09T16:38:38.866Z,97.06
2022-12-09T16:41:53.717Z,96.45
2022-12-09T16:45:30.016Z,96.91
2022-12-09T16:48:33.109Z,97.62
2022-12-09T16:51:35.491Z,98.85
2022-12-09T16:54:39.354Z,98.11
2022-12-09T16:57:42.330Z,100.00
2022-12-09T17:00:44.711Z,100.00
2022-12-09T17:03:50.407Z,99.85
2022-12-09T17:06:53.126Z,100.00
2022-12-09T17:09:55.548Z,100.00
2022-12-09T17:12:57.856Z,100.00
2022-12-09T17:16:00.286Z,100.00
2022-12-09T17:19:04.319Z,100.00
2022-12-09T17:22:06.812Z,100.00
2022-12-09T17:25:10.936Z,100.00
2022-12-09T17:28:13.724Z,100.00
2022-12-09T17:31:22.073Z,100.00
2022-12-09T17:34:24.629Z,100.00
2022-12-09T17:37:28.342Z,100.00
2022-12-09T17:40:31.150Z,100.00
2022-12-09T17:43:33.926Z,100.00
2022-12-09T17:46:36.132Z,100.00
2022-12-09T17:49:38.521Z,100.00
2022-12-09T17:52:41.719Z,100.00
2022-12-09T17:55:48.511Z,100.00
2022-12-09T17:58:57.630Z,100.00
2022-12-09T18:02:07.979Z,100.00
2022-12-09T18:05:11.553Z,100.00
2022-12-09T18:08:17.509Z,100.00
2022-12-09T18:11:22.187Z,100.00
2022-12-09T18:14:26.602Z,100.00
2022-12-09T18:17:29.908Z,100.00
2022-12-09T18:20:32.188Z,100.00
2022-12-09T18:23:34.356Z,100.00
2022-12-09T18:26:41.649Z,100.00
2022-12-09T18:29:44.395Z,100.00
2022-12-09T18:32:47.437Z,100.00
2022-12-09T18:35:50.215Z,100.00
2022-12-09T18:38:54.059Z,100.00
2022-12-09T18:41:59.035Z,100.00
2022-12-09T18:45:02.098Z,100.00
2022-12-09T18:48:04.791Z,100.00
2022-12-09T18:51:11.933Z,100.00
2022-12-09T18:54:19.131Z,100.00
2022-12-09T18:57:30.429Z,100.00
2022-12-09T19:00:38.518Z,100.00
2022-12-09T19:03:42.605Z,100.00
2022-12-09T19:06:48.940Z,100.00
2022-12-09T19:09:52.336Z,100.00
2022-12-09T19:12:57.302Z,100.00
2022-12-09T19:16:06.426Z,100.00
2022-12-09T19:19:11.106Z,100.00
2022-12-09T19:22:13.337Z,100.00
2022-12-09T19:25:15.860Z,100.00
2022-12-09T19:28:18.170Z,100.00
2022-12-09T19:31:26.886Z,100.00
2022-12-09T19:34:31.324Z,100.00
2022-12-09T19:37:33.912Z,100.00
2022-12-09T19:40:37.436Z,100.00
2022-12-09T19:43:40.248Z,100.00
2022-12-09T19:46:43.085Z,100.00
2022-12-09T19:49:45.548Z,100.00
2022-12-09T19:52:47.520Z,100.00
2022-12-09T19:55:50.462Z,100.00
2022-12-09T19:58:54.243Z,100.00
2022-12-09T20:01:57.350Z,100.00
2022-12-09T20:05:01.197Z,100.00
2022-12-09T20:08:06.167Z,100.00
2022-12-09T20:11:18.241Z,100.00
2022-12-09T20:14:20.662Z,100.00
2022-12-09T20:17:23.246Z,100.00
2022-12-09T20:20:25.462Z,100.00
2022-12-09T20:23:28.481Z,100.00
2022-12-09T20:26:34.123Z,100.00
2022-12-09T20:29:38.157Z,100.00
2022-12-09T20:32:41.189Z,100.00
2022-12-09T20:35:43.575Z,100.00
2022-12-09T20:38:58.909Z,100.00
2022-12-09T20:42:01.215Z,100.00
2022-12-09T20:45:05.080Z,100.00
2022-12-09T20:48:08.104Z,100.00
2022-12-09T20:51:16.446Z,100.00
2022-12-09T20:54:21.750Z,100.00
2022-12-09T20:57:25.689Z,100.00
2022-12-09T21:00:28.630Z,100.00
2022-12-09T21:03:32.402Z,100.00
2022-12-09T21:06:39.999Z,100.00
2022-12-09T21:09:43.080Z,100.00
2022-12-09T21:12:51.059Z,100.00
2022-12-09T21:15:54.947Z,100.00
2022-12-09T21:19:05.030Z,100.00
2022-12-09T21:22:09.460Z,100.00
2022-12-09T21:25:12.647Z,100.00
2022-12-09T21:28:20.077Z,100.00
2022-12-09T21:31:32.730Z,100.00
2022-12-09T21:34:50.098Z,100.00
2022-12-09T21:38:00.149Z,100.00
2022-12-09T21:41:13.035Z,100.00
2022-12-09T21:44:22.979Z,100.00
2022-12-09T21:47:25.051Z,100.00
2022-12-09T21:50:28.449Z,100.00
2022-12-09T21:53:33.655Z,100.00
2022-12-09T21:56:37.235Z,100.00
2022-12-09T21:59:39.272Z,100.00
2022-12-09T22:02:43.438Z,100.00
2022-12-09T22:05:45.615Z,100.00
2022-12-09T22:08:47.711Z,100.00
2022-12-09T22:11:50.848Z,100.00
2022-12-09T22:14:52.851Z,100.00
2022-12-09T22:17:54.755Z,100.00
2022-12-09T22:24:18.993Z,100.00
2022-12-09T22:27:21.324Z,100.00
2022-12-09T22:30:23.366Z,100.00
2022-12-09T22:33:25.603Z,100.00
2022-12-09T22:36:28.250Z,100.00
2022-12-09T22:39:30.894Z,100.00
2022-12-09T22:42:33.230Z,100.00
2022-12-09T22:45:36.427Z,100.00
2022-12-09T22:48:39.597Z,100.00
2022-12-09T22:51:42.394Z,100.00
2022-12-09T22:54:44.653Z,100.00
2022-12-09T22:57:46.722Z,100.00
2022-12-09T23:00:49.234Z,100.00
2022-12-09T23:03:52.216Z,100.00
2022-12-09T23:06:54.280Z,100.00
2022-12-09T23:09:56.290Z,100.00
2022-12-09T23:12:58.641Z,100.00
2022-12-09T23:16:05.272Z,100.00
2022-12-09T23:19:07.642Z,100.00
2022-12-09T23:22:09.814Z,100.00
2022-12-09T23:25:11.833Z,100.00
2022-12-09T23:28:13.757Z,100.00
2022-12-09T23:31:18.577Z,100.00
2022-12-09T23:34:22.947Z,100.00
2022-12-09T23:37:25.378Z,100.00
2022-12-09T23:40:27.335Z,100.00
2022-12-09T23:43:34.657Z,100.00
2022-12-09T23:46:37.279Z,100.00
2022-12-09T23:49:39.649Z,100.00
2022-12-09T23:52:41.857Z,100.00
2022-12-09T23:55:45.745Z,100.00
2022-12-09T23:58:48.284Z,100.00
